sensor_id;sensor_type;location;lat;lon;timestamp;temperature;humidity
4366;DHT22;2196;47.422;9.656;2022-12-29T00:01:49;5.50;99.90
4366;DHT22;2196;47.422;9.656;2022-12-29T00:04:18;5.60;99.90
4366;DHT22;2196;47.422;9.656;2022-12-29T00:06:47;5.70;99.90
4366;DHT22;2196;47.422;9.656;2022-12-29T00:09:15;5.70;99.90
4366;DHT22;2196;47.422;9.656;2022-12-29T00:11:43;5.60;99.90
4366;DHT22;2196;47.422;9.656;2022-12-29T00:14:11;5.70;99.90
4366;DHT22;2196;47.422;9.656;2022-12-29T00:16:59;5.70;99.90
4366;DHT22;2196;47.422;9.656;2022-12-29T00:19:26;5.70;99.90
4366;DHT22;2196;47.422;9.656;2022-12-29T00:22:13;5.60;99.90
4366;DHT22;2196;47.422;9.656;2022-12-29T00:24:58;5.70;99.90
4366;DHT22;2196;47.422;9.656;2022-12-29T00:27:57;5.70;99.90
4366;DHT22;2196;47.422;9.656;2022-12-29T00:30:42;5.70;99.90
4366;DHT22;2196;47.422;9.656;2022-12-29T00:33:29;5.80;99.90
4366;DHT22;2196;47.422;9.656;2022-12-29T00:36:16;5.80;99.90
4366;DHT22;2196;47.422;9.656;2022-12-29T00:38:49;5.80;99.90
4366;DHT22;2196;47.422;9.656;2022-12-29T00:41:34;5.80;99.90
4366;DHT22;2196;47.422;9.656;2022-12-29T00:44:18;5.80;99.90
4366;DHT22;2196;47.422;9.656;2022-12-29T00:46:45;5.80;99.90
4366;DHT22;2196;47.422;9.656;2022-12-29T00:49:14;5.90;99.90
4366;DHT22;2196;47.422;9.656;2022-12-29T00:52:00;5.90;99.90
4366;DHT22;2196;47.422;9.656;2022-12-29T00:54:30;5.80;99.90
4366;DHT22;2196;47.422;9.656;2022-12-29T00:56:58;5.80;99.90
4366;DHT22;2196;47.422;9.656;2022-12-29T00:59:25;5.80;99.90
4366;DHT22;2196;47.422;9.656;2022-12-29T01:01:59;5.70;99.90
4366;DHT22;2196;47.422;9.656;2022-12-29T01:04:26;5.70;99.90
4366;DHT22;2196;47.422;9.656;2022-12-29T01:06:57;5.70;99.90
4366;DHT22;2196;47.422;9.656;2022-12-29T01:09:24;5.60;99.90
4366;DHT22;2196;47.422;9.656;2022-12-29T01:12:10;5.60;99.90
4366;DHT22;2196;47.422;9.656;2022-12-29T01:14:38;5.50;99.90
4366;DHT22;2196;47.422;9.656;2022-12-29T01:17:05;5.50;99.90
4366;DHT22;2196;47.422;9.656;2022-12-29T01:19:32;5.50;99.90
4366;DHT22;2196;47.422;9.656;2022-12-29T01:21:59;5.40;99.90
4366;DHT22;2196;47.422;9.656;2022-12-29T01:24:27;5.30;99.90
4366;DHT22;2196;47.422;9.656;2022-12-29T01:26:57;5.30;99.90
4366;DHT22;2196;47.422;9.656;2022-12-29T01:29:25;5.20;99.90
4366;DHT22;2196;47.422;9.656;2022-12-29T01:31:52;5.30;99.90
4366;DHT22;2196;47.422;9.656;2022-12-29T01:34:19;5.40;99.90
4366;DHT22;2196;47.422;9.656;2022-12-29T01:36:46;5.30;99.90
4366;DHT22;2196;47.422;9.656;2022-12-29T01:39:14;5.30;99.90
4366;DHT22;2196;47.422;9.656;2022-12-29T01:41:41;5.30;99.90
4366;DHT22;2196;47.422;9.656;2022-12-29T01:47:13;5.10;99.90
4366;DHT22;2196;47.422;9.656;2022-12-29T01:49:41;5.00;99.90
4366;DHT22;2196;47.422;9.656;2022-12-29T01:52:08;4.90;99.90
4366;DHT22;2196;47.422;9.656;2022-12-29T01:54:37;4.90;99.90
4366;DHT22;2196;47.422;9.656;2022-12-29T01:57:10;4.80;99.90
4366;DHT22;2196;47.422;9.656;2022-12-29T01:59:40;4.80;99.90
4366;DHT22;2196;47.422;9.656;2022-12-29T02:02:08;4.70;99.90
4366;DHT22;2196;47.422;9.656;2022-12-29T02:04:40;4.80;99.90
4366;DHT22;2196;47.422;9.656;2022-12-29T02:07:14;4.80;99.90
4366;DHT22;2196;47.422;9.656;2022-12-29T02:09:45;4.80;99.90
4366;DHT22;2196;47.422;9.656;2022-12-29T02:12:13;4.90;99.90
4366;DHT22;2196;47.422;9.656;2022-12-29T02:14:41;4.90;99.90
4366;DHT22;2196;47.422;9.656;2022-12-29T02:17:13;4.90;99.90
4366;DHT22;2196;47.422;9.656;2022-12-29T02:23:07;4.90;99.90
4366;DHT22;2196;47.422;9.656;2022-12-29T02:25:56;5.10;99.90
4366;DHT22;2196;47.422;9.656;2022-12-29T02:28:53;5.20;99.90
4366;DHT22;2196;47.422;9.656;2022-12-29T02:31:31;5.40;99.90
4366;DHT22;2196;47.422;9.656;2022-12-29T02:34:10;5.50;99.90
4366;DHT22;2196;47.422;9.656;2022-12-29T02:36:47;5.60;99.90
4366;DHT22;2196;47.422;9.656;2022-12-29T02:39:23;5.60;99.90
4366;DHT22;2196;47.422;9.656;2022-12-29T02:41:58;5.70;99.90
4366;DHT22;2196;47.422;9.656;2022-12-29T02:44:34;5.80;99.90
4366;DHT22;2196;47.422;9.656;2022-12-29T02:47:09;5.80;99.90
4366;DHT22;2196;47.422;9.656;2022-12-29T02:49:42;5.80;99.90
4366;DHT22;2196;47.422;9.656;2022-12-29T02:52:16;5.90;99.90
4366;DHT22;2196;47.422;9.656;2022-12-29T02:54:44;5.90;99.90
4366;DHT22;2196;47.422;9.656;2022-12-29T02:57:12;6.00;99.90
4366;DHT22;2196;47.422;9.656;2022-12-29T02:59:41;6.10;99.90
4366;DHT22;2196;47.422;9.656;2022-12-29T03:02:24;6.30;99.90
4366;DHT22;2196;47.422;9.656;2022-12-29T03:05:12;6.30;99.90
4366;DHT22;2196;47.422;9.656;2022-12-29T03:07:47;6.30;99.90
4366;DHT22;2196;47.422;9.656;2022-12-29T03:10:30;6.20;99.90
4366;DHT22;2196;47.422;9.656;2022-12-29T03:13:02;6.10;99.90
4366;DHT22;2196;47.422;9.656;2022-12-29T03:15:55;6.10;99.90
4366;DHT22;2196;47.422;9.656;2022-12-29T03:18:38;6.00;99.90
4366;DHT22;2196;47.422;9.656;2022-12-29T03:21:10;5.90;99.90
4366;DHT22;2196;47.422;9.656;2022-12-29T03:23:40;5.90;99.90
4366;DHT22;2196;47.422;9.656;2022-12-29T03:26:10;5.90;99.90
4366;DHT22;2196;47.422;9.656;2022-12-29T03:28:40;6.00;99.90
4366;DHT22;2196;47.422;9.656;2022-12-29T03:31:09;6.00;99.90
4366;DHT22;2196;47.422;9.656;2022-12-29T03:33:39;6.10;99.90
4366;DHT22;2196;47.422;9.656;2022-12-29T03:36:11;6.30;99.90
4366;DHT22;2196;47.422;9.656;2022-12-29T03:38:45;6.40;99.90
4366;DHT22;2196;47.422;9.656;2022-12-29T03:41:17;6.60;99.90
4366;DHT22;2196;47.422;9.656;2022-12-29T03:43:45;6.70;99.90
4366;DHT22;2196;47.422;9.656;2022-12-29T03:46:12;6.90;99.90
4366;DHT22;2196;47.422;9.656;2022-12-29T03:48:41;7.00;99.90
4366;DHT22;2196;47.422;9.656;2022-12-29T03:51:08;7.00;99.90
4366;DHT22;2196;47.422;9.656;2022-12-29T03:53:35;7.00;99.90
4366;DHT22;2196;47.422;9.656;2022-12-29T03:56:02;7.00;99.90
4366;DHT22;2196;47.422;9.656;2022-12-29T03:58:29;7.00;99.90
4366;DHT22;2196;47.422;9.656;2022-12-29T04:00:56;7.10;99.90
4366;DHT22;2196;47.422;9.656;2022-12-29T04:03:23;7.10;99.90
4366;DHT22;2196;47.422;9.656;2022-12-29T04:05:52;7.20;99.90
4366;DHT22;2196;47.422;9.656;2022-12-29T04:08:19;7.30;99.90
4366;DHT22;2196;47.422;9.656;2022-12-29T04:10:47;7.40;99.90
4366;DHT22;2196;47.422;9.656;2022-12-29T04:13:14;7.40;99.90
4366;DHT22;2196;47.422;9.656;2022-12-29T04:15:42;7.50;99.90
4366;DHT22;2196;47.422;9.656;2022-12-29T04:18:10;7.60;99.90
4366;DHT22;2196;47.422;9.656;2022-12-29T04:20:37;7.60;99.90
4366;DHT22;2196;47.422;9.656;2022-12-29T04:23:23;7.60;99.90
4366;DHT22;2196;47.422;9.656;2022-12-29T04:25:50;7.50;99.90
4366;DHT22;2196;47.422;9.656;2022-12-29T04:28:17;7.50;99.90
4366;DHT22;2196;47.422;9.656;2022-12-29T04:30:45;7.50;99.90
4366;DHT22;2196;47.422;9.656;2022-12-29T04:33:12;7.60;99.90
4366;DHT22;2196;47.422;9.656;2022-12-29T04:35:39;7.70;99.90
4366;DHT22;2196;47.422;9.656;2022-12-29T04:38:06;7.70;99.90
4366;DHT22;2196;47.422;9.656;2022-12-29T04:40:34;7.70;99.90
4366;DHT22;2196;47.422;9.656;2022-12-29T04:43:01;7.70;99.90
4366;DHT22;2196;47.422;9.656;2022-12-29T04:45:28;7.70;99.90
4366;DHT22;2196;47.422;9.656;2022-12-29T04:47:55;7.70;99.90
4366;DHT22;2196;47.422;9.656;2022-12-29T04:50:22;7.70;99.90
4366;DHT22;2196;47.422;9.656;2022-12-29T04:52:49;7.70;99.90
4366;DHT22;2196;47.422;9.656;2022-12-29T04:55:16;7.80;99.90
4366;DHT22;2196;47.422;9.656;2022-12-29T04:57:45;7.70;99.90
4366;DHT22;2196;47.422;9.656;2022-12-29T05:00:12;7.70;99.90
4366;DHT22;2196;47.422;9.656;2022-12-29T05:02:40;7.60;99.90
4366;DHT22;2196;47.422;9.656;2022-12-29T05:05:07;7.60;99.90
4366;DHT22;2196;47.422;9.656;2022-12-29T05:07:34;7.60;99.90
4366;DHT22;2196;47.422;9.656;2022-12-29T05:10:02;7.50;99.90
4366;DHT22;2196;47.422;9.656;2022-12-29T05:12:30;7.40;99.90
4366;DHT22;2196;47.422;9.656;2022-12-29T05:14:59;7.30;99.90
4366;DHT22;2196;47.422;9.656;2022-12-29T05:17:26;7.20;99.90
4366;DHT22;2196;47.422;9.656;2022-12-29T05:19:53;7.20;99.90
4366;DHT22;2196;47.422;9.656;2022-12-29T05:22:20;7.10;99.90
4366;DHT22;2196;47.422;9.656;2022-12-29T05:24:47;7.00;99.90
4366;DHT22;2196;47.422;9.656;2022-12-29T05:27:14;7.00;99.90
4366;DHT22;2196;47.422;9.656;2022-12-29T05:29:41;7.00;99.90
4366;DHT22;2196;47.422;9.656;2022-12-29T05:32:10;7.00;99.90
4366;DHT22;2196;47.422;9.656;2022-12-29T05:34:37;7.00;99.90
4366;DHT22;2196;47.422;9.656;2022-12-29T05:37:03;7.10;99.90
4366;DHT22;2196;47.422;9.656;2022-12-29T05:39:30;7.20;99.90
4366;DHT22;2196;47.422;9.656;2022-12-29T05:41:59;7.20;99.90
4366;DHT22;2196;47.422;9.656;2022-12-29T05:44:26;7.20;99.90
4366;DHT22;2196;47.422;9.656;2022-12-29T05:46:53;7.30;99.90
4366;DHT22;2196;47.422;9.656;2022-12-29T05:49:24;7.20;99.90
4366;DHT22;2196;47.422;9.656;2022-12-29T05:51:51;7.20;99.90
4366;DHT22;2196;47.422;9.656;2022-12-29T05:54:22;7.10;99.90
4366;DHT22;2196;47.422;9.656;2022-12-29T05:56:49;7.10;99.90
4366;DHT22;2196;47.422;9.656;2022-12-29T05:59:16;7.00;99.90
4366;DHT22;2196;47.422;9.656;2022-12-29T06:01:43;6.90;99.90
4366;DHT22;2196;47.422;9.656;2022-12-29T06:04:10;6.80;99.90
4366;DHT22;2196;47.422;9.656;2022-12-29T06:06:38;6.80;99.90
4366;DHT22;2196;47.422;9.656;2022-12-29T06:09:06;6.80;99.90
4366;DHT22;2196;47.422;9.656;2022-12-29T06:11:33;6.80;99.90
4366;DHT22;2196;47.422;9.656;2022-12-29T06:14:00;6.90;99.90
4366;DHT22;2196;47.422;9.656;2022-12-29T06:16:27;6.90;99.90
4366;DHT22;2196;47.422;9.656;2022-12-29T06:18:54;6.90;99.90
4366;DHT22;2196;47.422;9.656;2022-12-29T06:21:21;6.90;99.90
4366;DHT22;2196;47.422;9.656;2022-12-29T06:23:49;7.00;99.90
4366;DHT22;2196;47.422;9.656;2022-12-29T06:26:16;7.10;99.90
4366;DHT22;2196;47.422;9.656;2022-12-29T06:28:43;7.10;99.90
4366;DHT22;2196;47.422;9.656;2022-12-29T06:31:10;7.10;99.90
4366;DHT22;2196;47.422;9.656;2022-12-29T06:33:37;7.00;99.90
4366;DHT22;2196;47.422;9.656;2022-12-29T06:36:05;6.80;99.90
4366;DHT22;2196;47.422;9.656;2022-12-29T06:38:32;6.80;99.90
4366;DHT22;2196;47.422;9.656;2022-12-29T06:41:02;6.90;99.90
4366;DHT22;2196;47.422;9.656;2022-12-29T06:43:29;7.10;99.90
4366;DHT22;2196;47.422;9.656;2022-12-29T06:45:57;7.10;99.90
4366;DHT22;2196;47.422;9.656;2022-12-29T06:48:24;7.20;99.90
4366;DHT22;2196;47.422;9.656;2022-12-29T06:50:51;7.20;99.90
4366;DHT22;2196;47.422;9.656;2022-12-29T06:53:19;7.20;99.90
4366;DHT22;2196;47.422;9.656;2022-12-29T06:55:46;7.20;99.90
4366;DHT22;2196;47.422;9.656;2022-12-29T06:58:14;7.20;99.90
4366;DHT22;2196;47.422;9.656;2022-12-29T07:00:41;7.10;99.90
4366;DHT22;2196;47.422;9.656;2022-12-29T07:03:08;7.10;99.90
4366;DHT22;2196;47.422;9.656;2022-12-29T07:05:35;7.20;99.90
4366;DHT22;2196;47.422;9.656;2022-12-29T07:08:03;7.20;99.90
4366;DHT22;2196;47.422;9.656;2022-12-29T07:10:30;7.30;99.90
4366;DHT22;2196;47.422;9.656;2022-12-29T07:12:57;7.50;99.90
4366;DHT22;2196;47.422;9.656;2022-12-29T07:15:25;7.70;99.90
4366;DHT22;2196;47.422;9.656;2022-12-29T07:17:52;7.90;99.90
4366;DHT22;2196;47.422;9.656;2022-12-29T07:20:19;8.00;99.90
4366;DHT22;2196;47.422;9.656;2022-12-29T07:22:46;8.00;99.90
4366;DHT22;2196;47.422;9.656;2022-12-29T07:25:13;8.20;99.90
4366;DHT22;2196;47.422;9.656;2022-12-29T07:27:40;8.30;99.90
4366;DHT22;2196;47.422;9.656;2022-12-29T07:30:08;8.30;99.90
4366;DHT22;2196;47.422;9.656;2022-12-29T07:32:37;8.20;99.90
4366;DHT22;2196;47.422;9.656;2022-12-29T07:35:04;8.40;99.90
4366;DHT22;2196;47.422;9.656;2022-12-29T07:37:33;8.40;99.90
4366;DHT22;2196;47.422;9.656;2022-12-29T07:40:00;8.40;99.90
4366;DHT22;2196;47.422;9.656;2022-12-29T07:42:29;8.50;99.90
4366;DHT22;2196;47.422;9.656;2022-12-29T07:44:56;8.50;99.90
4366;DHT22;2196;47.422;9.656;2022-12-29T07:47:23;8.50;99.90
4366;DHT22;2196;47.422;9.656;2022-12-29T07:49:51;8.60;99.90
4366;DHT22;2196;47.422;9.656;2022-12-29T07:52:18;8.80;99.90
4366;DHT22;2196;47.422;9.656;2022-12-29T07:54:45;8.90;99.90
4366;DHT22;2196;47.422;9.656;2022-12-29T07:57:12;9.00;99.90
4366;DHT22;2196;47.422;9.656;2022-12-29T07:59:39;9.10;99.90
4366;DHT22;2196;47.422;9.656;2022-12-29T08:02:09;9.10;99.90
4366;DHT22;2196;47.422;9.656;2022-12-29T08:04:36;9.10;99.90
4366;DHT22;2196;47.422;9.656;2022-12-29T08:07:05;9.10;99.90
4366;DHT22;2196;47.422;9.656;2022-12-29T08:09:32;9.00;99.90
4366;DHT22;2196;47.422;9.656;2022-12-29T08:11:59;9.10;99.90
4366;DHT22;2196;47.422;9.656;2022-12-29T08:14:26;9.10;99.90
4366;DHT22;2196;47.422;9.656;2022-12-29T08:16:53;9.10;99.90
4366;DHT22;2196;47.422;9.656;2022-12-29T08:19:20;9.30;99.90
4366;DHT22;2196;47.422;9.656;2022-12-29T08:21:47;9.40;99.90
4366;DHT22;2196;47.422;9.656;2022-12-29T08:24:15;9.40;99.90
4366;DHT22;2196;47.422;9.656;2022-12-29T08:26:42;9.40;99.90
4366;DHT22;2196;47.422;9.656;2022-12-29T08:29:09;9.50;99.90
4366;DHT22;2196;47.422;9.656;2022-12-29T08:31:36;9.50;99.90
4366;DHT22;2196;47.422;9.656;2022-12-29T08:34:03;9.40;99.90
4366;DHT22;2196;47.422;9.656;2022-12-29T08:36:31;9.40;99.90
4366;DHT22;2196;47.422;9.656;2022-12-29T08:38:58;9.50;99.90
4366;DHT22;2196;47.422;9.656;2022-12-29T08:41:26;9.50;99.90
4366;DHT22;2196;47.422;9.656;2022-12-29T08:43:53;9.50;99.90
4366;DHT22;2196;47.422;9.656;2022-12-29T08:46:20;9.60;99.90
4366;DHT22;2196;47.422;9.656;2022-12-29T08:48:48;9.60;99.90
4366;DHT22;2196;47.422;9.656;2022-12-29T08:51:15;9.60;99.90
4366;DHT22;2196;47.422;9.656;2022-12-29T08:53:42;9.60;99.90
4366;DHT22;2196;47.422;9.656;2022-12-29T08:56:09;9.60;99.90
4366;DHT22;2196;47.422;9.656;2022-12-29T08:58:39;9.50;99.90
4366;DHT22;2196;47.422;9.656;2022-12-29T09:01:06;9.50;99.90
4366;DHT22;2196;47.422;9.656;2022-12-29T09:03:33;9.40;99.90
4366;DHT22;2196;47.422;9.656;2022-12-29T09:06:00;9.30;99.90
4366;DHT22;2196;47.422;9.656;2022-12-29T09:08:28;9.40;99.90
4366;DHT22;2196;47.422;9.656;2022-12-29T09:10:55;9.40;99.90
4366;DHT22;2196;47.422;9.656;2022-12-29T09:13:22;9.40;99.90
4366;DHT22;2196;47.422;9.656;2022-12-29T09:15:57;9.50;99.90
4366;DHT22;2196;47.422;9.656;2022-12-29T09:18:24;9.50;99.90
4366;DHT22;2196;47.422;9.656;2022-12-29T09:20:56;9.60;99.90
4366;DHT22;2196;47.422;9.656;2022-12-29T09:23:24;9.70;99.90
4366;DHT22;2196;47.422;9.656;2022-12-29T09:25:51;9.80;99.90
4366;DHT22;2196;47.422;9.656;2022-12-29T09:28:18;9.80;99.90
4366;DHT22;2196;47.422;9.656;2022-12-29T09:30:46;9.90;99.90
4366;DHT22;2196;47.422;9.656;2022-12-29T09:33:15;10.00;99.90
4366;DHT22;2196;47.422;9.656;2022-12-29T09:35:42;10.00;99.90
4366;DHT22;2196;47.422;9.656;2022-12-29T09:38:10;10.10;99.90
4366;DHT22;2196;47.422;9.656;2022-12-29T09:40:38;10.20;99.90
4366;DHT22;2196;47.422;9.656;2022-12-29T09:43:20;10.20;99.90
4366;DHT22;2196;47.422;9.656;2022-12-29T09:45:57;10.20;99.90
4366;DHT22;2196;47.422;9.656;2022-12-29T09:48:30;10.20;99.90
4366;DHT22;2196;47.422;9.656;2022-12-29T09:51:05;10.30;99.90
4366;DHT22;2196;47.422;9.656;2022-12-29T09:53:39;10.30;99.90
4366;DHT22;2196;47.422;9.656;2022-12-29T09:56:13;10.40;99.90
4366;DHT22;2196;47.422;9.656;2022-12-29T09:58:44;10.40;99.90
4366;DHT22;2196;47.422;9.656;2022-12-29T10:01:20;10.50;99.90
4366;DHT22;2196;47.422;9.656;2022-12-29T10:03:52;10.60;99.90
4366;DHT22;2196;47.422;9.656;2022-12-29T10:06:23;10.70;99.90
4366;DHT22;2196;47.422;9.656;2022-12-29T10:08:59;10.80;99.90
4366;DHT22;2196;47.422;9.656;2022-12-29T10:11:39;10.80;99.90
4366;DHT22;2196;47.422;9.656;2022-12-29T10:14:22;10.90;99.90
4366;DHT22;2196;47.422;9.656;2022-12-29T10:17:04;11.00;99.90
4366;DHT22;2196;47.422;9.656;2022-12-29T10:19:49;11.10;99.90
4366;DHT22;2196;47.422;9.656;2022-12-29T10:22:26;11.40;99.90
4366;DHT22;2196;47.422;9.656;2022-12-29T10:24:59;11.70;99.90
4366;DHT22;2196;47.422;9.656;2022-12-29T10:27:30;12.00;99.90
4366;DHT22;2196;47.422;9.656;2022-12-29T10:29:59;12.10;99.90
4366;DHT22;2196;47.422;9.656;2022-12-29T10:32:31;12.20;99.90
4366;DHT22;2196;47.422;9.656;2022-12-29T10:35:06;12.30;99.90
4366;DHT22;2196;47.422;9.656;2022-12-29T10:37:38;12.30;99.90
4366;DHT22;2196;47.422;9.656;2022-12-29T10:40:16;12.50;99.90
4366;DHT22;2196;47.422;9.656;2022-12-29T10:42:49;12.60;99.90
4366;DHT22;2196;47.422;9.656;2022-12-29T10:45:18;12.70;99.90
4366;DHT22;2196;47.422;9.656;2022-12-29T10:47:53;12.80;99.90
4366;DHT22;2196;47.422;9.656;2022-12-29T10:50:24;12.80;99.90
4366;DHT22;2196;47.422;9.656;2022-12-29T10:52:52;12.80;99.90
4366;DHT22;2196;47.422;9.656;2022-12-29T10:55:22;12.90;99.90
4366;DHT22;2196;47.422;9.656;2022-12-29T10:57:53;13.00;99.90
4366;DHT22;2196;47.422;9.656;2022-12-29T11:00:23;13.20;99.90
4366;DHT22;2196;47.422;9.656;2022-12-29T11:05:52;13.20;99.10
4366;DHT22;2196;47.422;9.656;2022-12-29T11:08:22;13.30;99.90
4366;DHT22;2196;47.422;9.656;2022-12-29T11:10:58;13.20;99.30
4366;DHT22;2196;47.422;9.656;2022-12-29T11:13:27;13.20;99.50
4366;DHT22;2196;47.422;9.656;2022-12-29T11:15:55;13.20;99.10
4366;DHT22;2196;47.422;9.656;2022-12-29T11:18:23;13.20;98.70
4366;DHT22;2196;47.422;9.656;2022-12-29T11:20:54;13.30;98.90
4366;DHT22;2196;47.422;9.656;2022-12-29T11:23:25;13.50;98.60
4366;DHT22;2196;47.422;9.656;2022-12-29T11:26:15;13.50;98.50
4366;DHT22;2196;47.422;9.656;2022-12-29T11:28:44;13.60;97.60
4366;DHT22;2196;47.422;9.656;2022-12-29T11:31:16;13.50;97.10
4366;DHT22;2196;47.422;9.656;2022-12-29T11:33:43;13.50;97.80
4366;DHT22;2196;47.422;9.656;2022-12-29T11:36:15;13.50;96.50
4366;DHT22;2196;47.422;9.656;2022-12-29T11:38:46;13.50;96.60
4366;DHT22;2196;47.422;9.656;2022-12-29T11:41:22;13.40;96.80
4366;DHT22;2196;47.422;9.656;2022-12-29T11:43:51;13.30;96.40
4366;DHT22;2196;47.422;9.656;2022-12-29T11:46:22;13.30;98.20
4366;DHT22;2196;47.422;9.656;2022-12-29T11:48:50;13.10;96.10
4366;DHT22;2196;47.422;9.656;2022-12-29T11:51:27;13.10;96.80
4366;DHT22;2196;47.422;9.656;2022-12-29T11:53:57;13.10;96.70
4366;DHT22;2196;47.422;9.656;2022-12-29T11:56:34;13.10;95.90
4366;DHT22;2196;47.422;9.656;2022-12-29T11:59:40;13.10;96.80
4366;DHT22;2196;47.422;9.656;2022-12-29T12:02:39;13.10;97.00
4366;DHT22;2196;47.422;9.656;2022-12-29T12:08:16;13.00;96.20
4366;DHT22;2196;47.422;9.656;2022-12-29T12:10:48;13.10;95.60
4366;DHT22;2196;47.422;9.656;2022-12-29T12:13:22;13.10;97.10
4366;DHT22;2196;47.422;9.656;2022-12-29T12:15:54;13.00;97.60
4366;DHT22;2196;47.422;9.656;2022-12-29T12:18:32;13.10;96.30
4366;DHT22;2196;47.422;9.656;2022-12-29T12:21:08;13.00;97.50
4366;DHT22;2196;47.422;9.656;2022-12-29T12:23:48;13.00;96.90
4366;DHT22;2196;47.422;9.656;2022-12-29T12:26:21;12.90;97.10
4366;DHT22;2196;47.422;9.656;2022-12-29T12:28:53;13.00;97.00
4366;DHT22;2196;47.422;9.656;2022-12-29T12:31:30;13.00;96.80
4366;DHT22;2196;47.422;9.656;2022-12-29T12:34:03;12.90;96.50
4366;DHT22;2196;47.422;9.656;2022-12-29T12:36:53;12.90;97.00
4366;DHT22;2196;47.422;9.656;2022-12-29T12:39:30;13.00;96.80
4366;DHT22;2196;47.422;9.656;2022-12-29T12:42:10;13.00;97.50
4366;DHT22;2196;47.422;9.656;2022-12-29T12:44:48;12.90;96.60
4366;DHT22;2196;47.422;9.656;2022-12-29T12:50:38;12.90;98.00
4366;DHT22;2196;47.422;9.656;2022-12-29T12:53:25;12.80;98.40
4366;DHT22;2196;47.422;9.656;2022-12-29T12:56:09;12.70;98.70
4366;DHT22;2196;47.422;9.656;2022-12-29T12:58:46;12.70;97.90
4366;DHT22;2196;47.422;9.656;2022-12-29T13:01:29;12.70;98.60
4366;DHT22;2196;47.422;9.656;2022-12-29T13:06:51;12.80;99.40
4366;DHT22;2196;47.422;9.656;2022-12-29T13:09:48;12.70;99.60
4366;DHT22;2196;47.422;9.656;2022-12-29T13:12:33;12.70;99.10
4366;DHT22;2196;47.422;9.656;2022-12-29T13:15:15;12.70;99.40
4366;DHT22;2196;47.422;9.656;2022-12-29T13:18:07;12.70;99.30
4366;DHT22;2196;47.422;9.656;2022-12-29T13:20:43;12.70;98.90
4366;DHT22;2196;47.422;9.656;2022-12-29T13:23:20;12.70;97.60
4366;DHT22;2196;47.422;9.656;2022-12-29T13:25:56;12.70;98.80
4366;DHT22;2196;47.422;9.656;2022-12-29T13:28:31;12.80;99.00
4366;DHT22;2196;47.422;9.656;2022-12-29T13:31:03;12.70;99.00
4366;DHT22;2196;47.422;9.656;2022-12-29T13:33:39;12.60;98.10
4366;DHT22;2196;47.422;9.656;2022-12-29T13:36:13;12.60;99.20
4366;DHT22;2196;47.422;9.656;2022-12-29T13:38:48;12.50;98.30
4366;DHT22;2196;47.422;9.656;2022-12-29T13:41:29;12.50;98.70
4366;DHT22;2196;47.422;9.656;2022-12-29T13:44:01;12.40;98.40
4366;DHT22;2196;47.422;9.656;2022-12-29T13:46:35;12.40;98.90
4366;DHT22;2196;47.422;9.656;2022-12-29T13:49:07;12.30;99.20
4366;DHT22;2196;47.422;9.656;2022-12-29T13:51:37;12.20;98.80
4366;DHT22;2196;47.422;9.656;2022-12-29T13:54:16;12.20;98.30
4366;DHT22;2196;47.422;9.656;2022-12-29T13:56:51;12.00;98.30
4366;DHT22;2196;47.422;9.656;2022-12-29T13:59:25;12.00;98.20
4366;DHT22;2196;47.422;9.656;2022-12-29T14:02:02;12.00;99.10
4366;DHT22;2196;47.422;9.656;2022-12-29T14:04:32;12.00;98.10
4366;DHT22;2196;47.422;9.656;2022-12-29T14:07:03;12.00;98.10
4366;DHT22;2196;47.422;9.656;2022-12-29T14:09:52;12.00;97.90
4366;DHT22;2196;47.422;9.656;2022-12-29T14:12:30;12.00;97.90
4366;DHT22;2196;47.422;9.656;2022-12-29T14:15:22;12.00;98.00
4366;DHT22;2196;47.422;9.656;2022-12-29T14:18:05;12.00;97.10
4366;DHT22;2196;47.422;9.656;2022-12-29T14:20:33;12.00;96.80
4366;DHT22;2196;47.422;9.656;2022-12-29T14:23:15;12.00;96.70
4366;DHT22;2196;47.422;9.656;2022-12-29T14:26:00;11.90;96.80
4366;DHT22;2196;47.422;9.656;2022-12-29T14:28:37;11.90;97.10
4366;DHT22;2196;47.422;9.656;2022-12-29T14:31:33;11.90;96.70
4366;DHT22;2196;47.422;9.656;2022-12-29T14:34:28;11.90;96.40
4366;DHT22;2196;47.422;9.656;2022-12-29T14:36:57;12.00;96.90
4366;DHT22;2196;47.422;9.656;2022-12-29T14:39:35;11.90;96.70
4366;DHT22;2196;47.422;9.656;2022-12-29T14:42:05;11.90;97.00
4366;DHT22;2196;47.422;9.656;2022-12-29T14:44:33;11.90;96.90
4366;DHT22;2196;47.422;9.656;2022-12-29T14:47:05;11.90;97.10
4366;DHT22;2196;47.422;9.656;2022-12-29T14:49:40;11.90;97.80
4366;DHT22;2196;47.422;9.656;2022-12-29T14:52:15;11.80;97.00
4366;DHT22;2196;47.422;9.656;2022-12-29T14:54:47;11.70;97.60
4366;DHT22;2196;47.422;9.656;2022-12-29T14:57:32;11.70;97.90
4366;DHT22;2196;47.422;9.656;2022-12-29T15:00:06;11.60;98.50
4366;DHT22;2196;47.422;9.656;2022-12-29T15:02:39;11.50;99.90
4366;DHT22;2196;47.422;9.656;2022-12-29T15:05:29;11.50;99.90
4366;DHT22;2196;47.422;9.656;2022-12-29T15:07:58;11.50;99.90
4366;DHT22;2196;47.422;9.656;2022-12-29T15:10:30;11.30;99.90
4366;DHT22;2196;47.422;9.656;2022-12-29T15:13:03;11.40;99.90
4366;DHT22;2196;47.422;9.656;2022-12-29T15:15:36;11.20;99.90
4366;DHT22;2196;47.422;9.656;2022-12-29T15:18:14;11.20;99.90
4366;DHT22;2196;47.422;9.656;2022-12-29T15:20:42;11.30;99.90
4366;DHT22;2196;47.422;9.656;2022-12-29T15:23:11;11.20;99.90
4366;DHT22;2196;47.422;9.656;2022-12-29T15:25:47;11.10;99.90
4366;DHT22;2196;47.422;9.656;2022-12-29T15:28:16;11.00;99.90
4366;DHT22;2196;47.422;9.656;2022-12-29T15:30:55;10.90;99.90
4366;DHT22;2196;47.422;9.656;2022-12-29T15:33:26;10.90;99.90
4366;DHT22;2196;47.422;9.656;2022-12-29T15:35:55;11.00;99.90
4366;DHT22;2196;47.422;9.656;2022-12-29T15:38:24;11.00;99.90
4366;DHT22;2196;47.422;9.656;2022-12-29T15:40:53;10.90;99.90
4366;DHT22;2196;47.422;9.656;2022-12-29T15:43:34;10.70;99.90
4366;DHT22;2196;47.422;9.656;2022-12-29T15:46:03;10.60;99.90
4366;DHT22;2196;47.422;9.656;2022-12-29T15:48:32;10.50;99.90
4366;DHT22;2196;47.422;9.656;2022-12-29T15:51:00;10.40;99.90
4366;DHT22;2196;47.422;9.656;2022-12-29T15:53:29;10.30;99.90
4366;DHT22;2196;47.422;9.656;2022-12-29T15:55:58;10.30;99.90
4366;DHT22;2196;47.422;9.656;2022-12-29T15:58:27;10.30;99.90
4366;DHT22;2196;47.422;9.656;2022-12-29T16:00:56;10.20;99.90
4366;DHT22;2196;47.422;9.656;2022-12-29T16:03:25;10.10;99.90
4366;DHT22;2196;47.422;9.656;2022-12-29T16:06:07;10.20;99.90
4366;DHT22;2196;47.422;9.656;2022-12-29T16:08:36;10.10;99.90
4366;DHT22;2196;47.422;9.656;2022-12-29T16:11:21;10.10;99.90
4366;DHT22;2196;47.422;9.656;2022-12-29T16:13:50;10.10;99.90
4366;DHT22;2196;47.422;9.656;2022-12-29T16:16:20;10.00;99.90
4366;DHT22;2196;47.422;9.656;2022-12-29T16:18:49;9.90;99.90
4366;DHT22;2196;47.422;9.656;2022-12-29T16:21:21;9.90;99.90
4366;DHT22;2196;47.422;9.656;2022-12-29T16:23:51;9.90;99.90
4366;DHT22;2196;47.422;9.656;2022-12-29T16:26:20;9.80;99.90
4366;DHT22;2196;47.422;9.656;2022-12-29T16:28:51;9.90;99.90
4366;DHT22;2196;47.422;9.656;2022-12-29T16:31:22;9.90;99.90
4366;DHT22;2196;47.422;9.656;2022-12-29T16:33:50;9.90;99.90
4366;DHT22;2196;47.422;9.656;2022-12-29T16:36:30;9.80;99.90
4366;DHT22;2196;47.422;9.656;2022-12-29T16:39:26;9.70;99.90
4366;DHT22;2196;47.422;9.656;2022-12-29T16:41:54;9.70;99.90
4366;DHT22;2196;47.422;9.656;2022-12-29T16:44:23;9.60;99.90
4366;DHT22;2196;47.422;9.656;2022-12-29T16:47:16;9.60;99.90
4366;DHT22;2196;47.422;9.656;2022-12-29T16:49:49;9.60;99.90
4366;DHT22;2196;47.422;9.656;2022-12-29T16:52:21;9.60;99.90
4366;DHT22;2196;47.422;9.656;2022-12-29T16:54:52;9.70;99.90
4366;DHT22;2196;47.422;9.656;2022-12-29T16:57:23;9.70;99.90
4366;DHT22;2196;47.422;9.656;2022-12-29T16:59:52;9.70;99.90
4366;DHT22;2196;47.422;9.656;2022-12-29T17:02:22;9.70;99.90